sensor_id;sensor_type;location;lat;lon;timestamp;pressure;altitude;pressure_sealevel;temperature;humidity
71573;BME280;59408;51.032;9.410;2023-08-08T00:01:35;98943.19;;;9.95;100.00
71573;BME280;59408;51.032;9.410;2023-08-08T00:04:02;98953.19;;;9.91;100.00
71573;BME280;59408;51.032;9.410;2023-08-08T00:06:28;98951.78;;;9.85;100.00
71573;BME280;59408;51.032;9.410;2023-08-08T00:08:55;98942.72;;;9.81;100.00
71573;BME280;59408;51.032;9.410;2023-08-08T00:11:23;98938.06;;;9.81;100.00
71573;BME280;59408;51.032;9.410;2023-08-08T00:13:50;98941.91;;;9.80;100.00
71573;BME280;59408;51.032;9.410;2023-08-08T00:16:16;98934.41;;;9.77;100.00
71573;BME280;59408;51.032;9.410;2023-08-08T00:18:43;98936.22;;;9.73;100.00
71573;BME280;59408;51.032;9.410;2023-08-08T00:21:09;98938.00;;;9.69;100.00
71573;BME280;59408;51.032;9.410;2023-08-08T00:23:36;98927.78;;;9.66;100.00
71573;BME280;59408;51.032;9.410;2023-08-08T00:26:03;98934.34;;;9.65;100.00
71573;BME280;59408;51.032;9.410;2023-08-08T00:28:31;98927.34;;;9.64;100.00
71573;BME280;59408;51.032;9.410;2023-08-08T00:30:57;98927.66;;;9.63;100.00
71573;BME280;59408;51.032;9.410;2023-08-08T00:33:24;98926.88;;;9.62;100.00
71573;BME280;59408;51.032;9.410;2023-08-08T00:35:51;98921.19;;;9.67;100.00
71573;BME280;59408;51.032;9.410;2023-08-08T00:38:17;98909.50;;;9.67;100.00
71573;BME280;59408;51.032;9.410;2023-08-08T00:40:44;98922.13;;;9.71;100.00
71573;BME280;59408;51.032;9.410;2023-08-08T00:43:11;98912.63;;;9.77;100.00
71573;BME280;59408;51.032;9.410;2023-08-08T00:45:39;98908.28;;;9.76;100.00
71573;BME280;59408;51.032;9.410;2023-08-08T00:48:08;98899.31;;;9.76;100.00
71573;BME280;59408;51.032;9.410;2023-08-08T00:50:35;98906.59;;;9.84;100.00
71573;BME280;59408;51.032;9.410;2023-08-08T00:53:03;98895.97;;;9.91;100.00
71573;BME280;59408;51.032;9.410;2023-08-08T00:55:31;98888.69;;;9.95;100.00
71573;BME280;59408;51.032;9.410;2023-08-08T00:57:57;98888.94;;;10.02;100.00
71573;BME280;59408;51.032;9.410;2023-08-08T01:00:24;98891.31;;;10.04;100.00
71573;BME280;59408;51.032;9.410;2023-08-08T01:02:52;98882.00;;;10.05;100.00
71573;BME280;59408;51.032;9.410;2023-08-08T01:05:19;98888.50;;;10.12;100.00
71573;BME280;59408;51.032;9.410;2023-08-08T01:07:52;98882.38;;;10.15;100.00
71573;BME280;59408;51.032;9.410;2023-08-08T01:10:24;98888.75;;;10.19;100.00
71573;BME280;59408;51.032;9.410;2023-08-08T01:12:54;98882.59;;;10.22;100.00
71573;BME280;59408;51.032;9.410;2023-08-08T01:15:22;98870.22;;;10.25;100.00
71573;BME280;59408;51.032;9.410;2023-08-08T01:17:52;98873.09;;;10.29;100.00
71573;BME280;59408;51.032;9.410;2023-08-08T01:20:19;98871.03;;;10.25;100.00
71573;BME280;59408;51.032;9.410;2023-08-08T01:22:51;98856.94;;;10.23;100.00
71573;BME280;59408;51.032;9.410;2023-08-08T01:25:23;98851.03;;;10.21;100.00
71573;BME280;59408;51.032;9.410;2023-08-08T01:27:50;98848.63;;;10.20;100.00
71573;BME280;59408;51.032;9.410;2023-08-08T01:30:17;98843.53;;;10.18;100.00
71573;BME280;59408;51.032;9.410;2023-08-08T01:32:43;98833.88;;;10.21;100.00
71573;BME280;59408;51.032;9.410;2023-08-08T01:35:10;98838.09;;;10.18;100.00
71573;BME280;59408;51.032;9.410;2023-08-08T01:37:41;98856.47;;;10.21;100.00
71573;BME280;59408;51.032;9.410;2023-08-08T01:40:11;98853.53;;;10.27;100.00
71573;BME280;59408;51.032;9.410;2023-08-08T01:42:41;98866.84;;;10.28;100.00
71573;BME280;59408;51.032;9.410;2023-08-08T01:45:09;98873.09;;;10.29;100.00
71573;BME280;59408;51.032;9.410;2023-08-08T01:47:36;98879.44;;;10.33;100.00
71573;BME280;59408;51.032;9.410;2023-08-08T01:50:03;98875.44;;;10.30;100.00
71573;BME280;59408;51.032;9.410;2023-08-08T01:52:30;98870.00;;;10.30;100.00
71573;BME280;59408;51.032;9.410;2023-08-08T01:54:56;98864.53;;;10.30;100.00
71573;BME280;59408;51.032;9.410;2023-08-08T01:57:23;98861.00;;;10.30;100.00
71573;BME280;59408;51.032;9.410;2023-08-08T01:59:51;98858.66;;;10.28;100.00
71573;BME280;59408;51.032;9.410;2023-08-08T02:02:18;98865.66;;;10.29;100.00
71573;BME280;59408;51.032;9.410;2023-08-08T02:04:44;98868.75;;;10.28;100.00
71573;BME280;59408;51.032;9.410;2023-08-08T02:07:11;98865.66;;;10.29;100.00
71573;BME280;59408;51.032;9.410;2023-08-08T02:09:37;98858.28;;;10.30;100.00
71573;BME280;59408;51.032;9.410;2023-08-08T02:12:04;98866.13;;;10.31;100.00
71573;BME280;59408;51.032;9.410;2023-08-08T02:14:31;98859.22;;;10.34;100.00
71573;BME280;59408;51.032;9.410;2023-08-08T02:16:59;98855.69;;;10.33;100.00
71573;BME280;59408;51.032;9.410;2023-08-08T02:19:26;98865.78;;;10.33;100.00
71573;BME280;59408;51.032;9.410;2023-08-08T02:21:52;98870.91;;;10.34;100.00
71573;BME280;59408;51.032;9.410;2023-08-08T02:24:19;98870.25;;;10.37;100.00
71573;BME280;59408;51.032;9.410;2023-08-08T02:26:45;98871.03;;;10.38;100.00
71573;BME280;59408;51.032;9.410;2023-08-08T02:29:12;98869.44;;;10.37;100.00
71573;BME280;59408;51.032;9.410;2023-08-08T02:31:39;98867.50;;;10.37;100.00
71573;BME280;59408;51.032;9.410;2023-08-08T02:34:07;98866.72;;;10.37;100.00
71573;BME280;59408;51.032;9.410;2023-08-08T02:36:33;98854.22;;;10.36;100.00
71573;BME280;59408;51.032;9.410;2023-08-08T02:39:00;98855.81;;;10.37;100.00
71573;BME280;59408;51.032;9.410;2023-08-08T02:41:27;98852.63;;;10.35;100.00
71573;BME280;59408;51.032;9.410;2023-08-08T02:43:53;98852.63;;;10.35;100.00
71573;BME280;59408;51.032;9.410;2023-08-08T02:46:20;98855.81;;;10.37;100.00
71573;BME280;59408;51.032;9.410;2023-08-08T02:48:46;98855.00;;;10.36;100.00
71573;BME280;59408;51.032;9.410;2023-08-08T02:51:14;98858.16;;;10.38;100.00
71573;BME280;59408;51.032;9.410;2023-08-08T02:53:41;98850.78;;;10.39;100.00
71573;BME280;59408;51.032;9.410;2023-08-08T02:56:07;98838.41;;;10.41;100.00
71573;BME280;59408;51.032;9.410;2023-08-08T02:58:34;98841.13;;;10.41;100.00
71573;BME280;59408;51.032;9.410;2023-08-08T03:01:01;98843.88;;;10.41;100.00
71573;BME280;59408;51.032;9.410;2023-08-08T03:03:27;98842.06;;;10.45;100.00
71573;BME280;59408;51.032;9.410;2023-08-08T03:05:54;98842.94;;;10.49;100.00
71573;BME280;59408;51.032;9.410;2023-08-08T03:08:22;98832.94;;;10.53;100.00
71573;BME280;59408;51.032;9.410;2023-08-08T03:10:49;98827.84;;;10.52;100.00
71573;BME280;59408;51.032;9.410;2023-08-08T03:13:16;98831.03;;;10.54;100.00
71573;BME280;59408;51.032;9.410;2023-08-08T03:15:42;98826.44;;;10.58;100.00
71573;BME280;59408;51.032;9.410;2023-08-08T03:18:09;98826.22;;;10.63;100.00
71573;BME280;59408;51.032;9.410;2023-08-08T03:20:36;98832.03;;;10.61;100.00
71573;BME280;59408;51.032;9.410;2023-08-08T03:23:03;98823.50;;;10.63;100.00
71573;BME280;59408;51.032;9.410;2023-08-08T03:25:31;98823.59;;;10.67;100.00
71573;BME280;59408;51.032;9.410;2023-08-08T03:27:57;98826.91;;;10.72;100.00
71573;BME280;59408;51.032;9.410;2023-08-08T03:30:24;98820.41;;;10.77;100.00
71573;BME280;59408;51.032;9.410;2023-08-08T03:32:51;98831.66;;;10.75;100.00
71573;BME280;59408;51.032;9.410;2023-08-08T03:35:17;98826.91;;;10.72;100.00
71573;BME280;59408;51.032;9.410;2023-08-08T03:37:44;98834.06;;;10.77;100.00
71573;BME280;59408;51.032;9.410;2023-08-08T03:40:11;98826.00;;;10.80;100.00
71573;BME280;59408;51.032;9.410;2023-08-08T03:42:39;98827.59;;;10.81;100.00
71573;BME280;59408;51.032;9.410;2023-08-08T03:45:07;98814.75;;;10.82;100.00
71573;BME280;59408;51.032;9.410;2023-08-08T03:47:34;98810.50;;;10.84;100.00
71573;BME280;59408;51.032;9.410;2023-08-08T03:50:01;98808.56;;;10.85;100.00
71573;BME280;59408;51.032;9.410;2023-08-08T03:52:27;98813.34;;;10.88;100.00
71573;BME280;59408;51.032;9.410;2023-08-08T03:54:54;98804.81;;;10.89;100.00
71573;BME280;59408;51.032;9.410;2023-08-08T03:57:21;98816.53;;;10.90;100.00
71573;BME280;59408;51.032;9.410;2023-08-08T03:59:48;98810.28;;;10.89;100.00
71573;BME280;59408;51.032;9.410;2023-08-08T04:02:15;98803.34;;;10.92;100.00
71573;BME280;59408;51.032;9.410;2023-08-08T04:04:42;98805.69;;;10.93;100.00
71573;BME280;59408;51.032;9.410;2023-08-08T04:07:08;98803.75;;;10.94;100.00
71573;BME280;59408;51.032;9.410;2023-08-08T04:09:35;98812.31;;;10.92;100.00
71573;BME280;59408;51.032;9.410;2023-08-08T04:12:01;98806.88;;;10.92;100.00
71573;BME280;59408;51.032;9.410;2023-08-08T04:14:29;98800.16;;;10.90;100.00
71573;BME280;59408;51.032;9.410;2023-08-08T04:16:56;98802.44;;;10.88;100.00
71573;BME280;59408;51.032;9.410;2023-08-08T04:19:23;98814.81;;;10.85;100.00
71573;BME280;59408;51.032;9.410;2023-08-08T04:21:50;98803.47;;;10.83;100.00
71573;BME280;59408;51.032;9.410;2023-08-08T04:24:16;98800.63;;;10.80;100.00
71573;BME280;59408;51.032;9.410;2023-08-08T04:26:43;98803.25;;;10.76;100.00
71573;BME280;59408;51.032;9.410;2023-08-08T04:29:10;98803.81;;;10.70;100.00
71573;BME280;59408;51.032;9.410;2023-08-08T04:31:36;98806.44;;;10.66;100.00
71573;BME280;59408;51.032;9.410;2023-08-08T04:34:04;98811.78;;;10.62;100.00
71573;BME280;59408;51.032;9.410;2023-08-08T04:36:31;98806.47;;;10.54;100.00
71573;BME280;59408;51.032;9.410;2023-08-08T04:38:57;98800.56;;;10.52;100.00
71573;BME280;59408;51.032;9.410;2023-08-08T04:41:24;98796.13;;;10.47;100.00
71573;BME280;59408;51.032;9.410;2023-08-08T04:43:51;98811.25;;;10.45;100.00
71573;BME280;59408;51.032;9.410;2023-08-08T04:46:18;98797.84;;;10.40;100.00
71573;BME280;59408;51.032;9.410;2023-08-08T04:48:44;98799.78;;;10.39;100.00
71573;BME280;59408;51.032;9.410;2023-08-08T04:51:12;98801.63;;;10.35;100.00
71573;BME280;59408;51.032;9.410;2023-08-08T04:53:39;98798.09;;;10.35;100.00
71573;BME280;59408;51.032;9.410;2023-08-08T04:56:05;98796.50;;;10.34;100.00
71573;BME280;59408;51.032;9.410;2023-08-08T04:58:32;98804.69;;;10.34;100.00
71573;BME280;59408;51.032;9.410;2023-08-08T05:00:59;98803.22;;;10.36;100.00
71573;BME280;59408;51.032;9.410;2023-08-08T05:03:25;98803.63;;;10.38;100.00
71573;BME280;59408;51.032;9.410;2023-08-08T05:05:52;98795.03;;;10.36;100.00
71573;BME280;59408;51.032;9.410;2023-08-08T05:08:20;98789.47;;;10.33;100.00
71573;BME280;59408;51.032;9.410;2023-08-08T05:10:47;98792.31;;;10.36;100.00
71573;BME280;59408;51.032;9.410;2023-08-08T05:13:13;98796.25;;;10.39;100.00
71573;BME280;59408;51.032;9.410;2023-08-08T05:15:40;98799.22;;;10.46;100.00
71573;BME280;59408;51.032;9.410;2023-08-08T05:18:07;98803.84;;;10.57;100.00
71573;BME280;59408;51.032;9.410;2023-08-08T05:20:34;98809.84;;;10.75;100.00
71573;BME280;59408;51.032;9.410;2023-08-08T05:23:01;98801.97;;;10.86;100.00
71573;BME280;59408;51.032;9.410;2023-08-08T05:25:28;98806.72;;;11.01;100.00
71573;BME280;59408;51.032;9.410;2023-08-08T05:27:55;98798.38;;;11.10;100.00
71573;BME280;59408;51.032;9.410;2023-08-08T05:30:22;98793.56;;;11.19;100.00
71573;BME280;59408;51.032;9.410;2023-08-08T05:32:48;98795.56;;;11.22;100.00
71573;BME280;59408;51.032;9.410;2023-08-08T05:35:15;98797.16;;;11.23;100.00
71573;BME280;59408;51.032;9.410;2023-08-08T05:37:42;98796.81;;;11.24;99.86
71573;BME280;59408;51.032;9.410;2023-08-08T05:40:09;98788.81;;;11.31;99.60
71573;BME280;59408;51.032;9.410;2023-08-08T05:42:37;98793.59;;;11.34;99.24
71573;BME280;59408;51.032;9.410;2023-08-08T05:45:05;98796.06;;;11.40;98.96
71573;BME280;59408;51.032;9.410;2023-08-08T05:47:32;98771.41;;;11.36;97.91
71573;BME280;59408;51.032;9.410;2023-08-08T05:49:59;98786.53;;;11.33;98.41
71573;BME280;59408;51.032;9.410;2023-08-08T05:52:26;98793.81;;;11.29;99.57
71573;BME280;59408;51.032;9.410;2023-08-08T05:54:52;98804.75;;;11.29;99.92
71573;BME280;59408;51.032;9.410;2023-08-08T05:57:19;98800.53;;;11.32;99.80
71573;BME280;59408;51.032;9.410;2023-08-08T05:59:47;98806.56;;;11.38;99.62
71573;BME280;59408;51.032;9.410;2023-08-08T06:02:14;98804.97;;;11.36;99.53
71573;BME280;59408;51.032;9.410;2023-08-08T06:04:40;98808.91;;;11.39;98.75
71573;BME280;59408;51.032;9.410;2023-08-08T06:07:07;98825.41;;;11.43;99.18
71573;BME280;59408;51.032;9.410;2023-08-08T06:09:35;98815.63;;;11.42;99.47
71573;BME280;59408;51.032;9.410;2023-08-08T06:12:02;98822.41;;;11.48;100.00
71573;BME280;59408;51.032;9.410;2023-08-08T06:14:30;98817.66;;;11.45;99.98
71573;BME280;59408;51.032;9.410;2023-08-08T06:16:58;98820.75;;;11.43;98.96
71573;BME280;59408;51.032;9.410;2023-08-08T06:19:24;98812.66;;;11.47;99.31
71573;BME280;59408;51.032;9.410;2023-08-08T06:21:51;98812.81;;;11.54;100.00
71573;BME280;59408;51.032;9.410;2023-08-08T06:24:18;98811.69;;;11.55;98.77
71573;BME280;59408;51.032;9.410;2023-08-08T06:26:44;98811.41;;;11.60;99.58
71573;BME280;59408;51.032;9.410;2023-08-08T06:29:11;98809.59;;;11.64;98.50
71573;BME280;59408;51.032;9.410;2023-08-08T06:31:38;98803.16;;;11.72;98.26
71573;BME280;59408;51.032;9.410;2023-08-08T06:34:06;98801.91;;;11.85;98.08
71573;BME280;59408;51.032;9.410;2023-08-08T06:36:33;98805.00;;;11.84;97.22
71573;BME280;59408;51.032;9.410;2023-08-08T06:38:59;98794.59;;;11.89;97.47
71573;BME280;59408;51.032;9.410;2023-08-08T06:41:26;98792.72;;;11.93;97.36
71573;BME280;59408;51.032;9.410;2023-08-08T06:43:53;98795.47;;;11.93;96.29
71573;BME280;59408;51.032;9.410;2023-08-08T06:46:19;98791.59;;;11.94;96.97
71573;BME280;59408;51.032;9.410;2023-08-08T06:48:46;98788.94;;;11.98;96.84
71573;BME280;59408;51.032;9.410;2023-08-08T06:51:14;98784.91;;;11.92;94.92
71573;BME280;59408;51.032;9.410;2023-08-08T06:53:41;98788.50;;;11.96;95.61
71573;BME280;59408;51.032;9.410;2023-08-08T06:56:07;98787.88;;;12.02;94.13
71573;BME280;59408;51.032;9.410;2023-08-08T06:58:34;98795.66;;;12.16;93.27
71573;BME280;59408;51.032;9.410;2023-08-08T07:01:02;98801.22;;;12.20;92.34
71573;BME280;59408;51.032;9.410;2023-08-08T07:03:29;98795.72;;;12.35;93.07
71573;BME280;59408;51.032;9.410;2023-08-08T07:05:56;98798.91;;;12.37;92.77
71573;BME280;59408;51.032;9.410;2023-08-08T07:08:24;98803.28;;;12.42;92.33
71573;BME280;59408;51.032;9.410;2023-08-08T07:10:51;98786.63;;;12.47;91.07
71573;BME280;59408;51.032;9.410;2023-08-08T07:13:20;98789.16;;;12.56;90.96
71573;BME280;59408;51.032;9.410;2023-08-08T07:15:46;98794.03;;;12.66;90.95
71573;BME280;59408;51.032;9.410;2023-08-08T07:18:13;98786.78;;;12.73;91.57
71573;BME280;59408;51.032;9.410;2023-08-08T07:20:40;98788.16;;;12.83;89.09
71573;BME280;59408;51.032;9.410;2023-08-08T07:23:07;98787.88;;;12.88;87.98
71573;BME280;59408;51.032;9.410;2023-08-08T07:25:34;98778.28;;;12.98;89.53
71573;BME280;59408;51.032;9.410;2023-08-08T07:28:01;98781.25;;;13.08;88.00
71573;BME280;59408;51.032;9.410;2023-08-08T07:30:28;98783.88;;;13.24;86.50
71573;BME280;59408;51.032;9.410;2023-08-08T07:32:54;98790.28;;;13.32;87.13
71573;BME280;59408;51.032;9.410;2023-08-08T07:35:21;98785.16;;;13.49;86.49
71573;BME280;59408;51.032;9.410;2023-08-08T07:37:47;98804.91;;;13.58;86.17
71573;BME280;59408;51.032;9.410;2023-08-08T07:40:15;98770.06;;;13.59;84.79
71573;BME280;59408;51.032;9.410;2023-08-08T07:42:43;98780.59;;;13.80;84.64
71573;BME280;59408;51.032;9.410;2023-08-08T07:45:09;98770.25;;;13.70;85.28
71573;BME280;59408;51.032;9.410;2023-08-08T07:47:36;98771.03;;;13.70;84.93
71573;BME280;59408;51.032;9.410;2023-08-08T07:50:03;98772.72;;;13.75;84.95
71573;BME280;59408;51.032;9.410;2023-08-08T07:52:30;98776.28;;;13.79;85.27
71573;BME280;59408;51.032;9.410;2023-08-08T07:54:57;98779.34;;;13.74;84.38
71573;BME280;59408;51.032;9.410;2023-08-08T07:57:24;98771.66;;;13.83;85.22
71573;BME280;59408;51.032;9.410;2023-08-08T07:59:52;98773.00;;;13.92;83.60
71573;BME280;59408;51.032;9.410;2023-08-08T08:02:18;98767.25;;;14.01;82.79
71573;BME280;59408;51.032;9.410;2023-08-08T08:04:45;98770.09;;;14.34;83.01
71573;BME280;59408;51.032;9.410;2023-08-08T08:07:12;98768.31;;;14.76;81.64
71573;BME280;59408;51.032;9.410;2023-08-08T08:09:38;98772.00;;;14.87;79.97
71573;BME280;59408;51.032;9.410;2023-08-08T08:12:05;98784.75;;;15.02;81.49
71573;BME280;59408;51.032;9.410;2023-08-08T08:14:32;98777.34;;;15.06;78.16
71573;BME280;59408;51.032;9.410;2023-08-08T08:17:00;98769.66;;;15.22;79.01
71573;BME280;59408;51.032;9.410;2023-08-08T08:19:27;98760.06;;;15.42;76.31
71573;BME280;59408;51.032;9.410;2023-08-08T08:21:53;98768.34;;;15.87;78.82
71573;BME280;59408;51.032;9.410;2023-08-08T08:24:20;98770.50;;;16.07;77.05
71573;BME280;59408;51.032;9.410;2023-08-08T08:26:46;98765.38;;;16.06;73.07
71573;BME280;59408;51.032;9.410;2023-08-08T08:29:13;98760.28;;;16.08;74.32
71573;BME280;59408;51.032;9.410;2023-08-08T08:31:40;98759.72;;;15.88;75.89
71573;BME280;59408;51.032;9.410;2023-08-08T08:34:08;98757.72;;;15.81;75.45
71573;BME280;59408;51.032;9.410;2023-08-08T08:36:34;98765.59;;;15.83;75.35
71573;BME280;59408;51.032;9.410;2023-08-08T08:39:01;98762.44;;;15.84;75.11
71573;BME280;59408;51.032;9.410;2023-08-08T08:41:28;98752.47;;;16.17;75.16
71573;BME280;59408;51.032;9.410;2023-08-08T08:43:55;98759.91;;;16.09;73.61
71573;BME280;59408;51.032;9.410;2023-08-08T08:46:22;98752.53;;;16.24;72.63
71573;BME280;59408;51.032;9.410;2023-08-08T08:48:51;98755.84;;;16.58;71.73
71573;BME280;59408;51.032;9.410;2023-08-08T08:51:19;98753.34;;;17.04;70.80
71573;BME280;59408;51.032;9.410;2023-08-08T08:53:46;98756.81;;;16.87;70.23
71573;BME280;59408;51.032;9.410;2023-08-08T08:56:13;98754.50;;;17.03;71.20
71573;BME280;59408;51.032;9.410;2023-08-08T08:58:40;98748.00;;;16.56;70.78
71573;BME280;59408;51.032;9.410;2023-08-08T09:01:09;98762.34;;;16.94;68.77
71573;BME280;59408;51.032;9.410;2023-08-08T09:03:36;98762.44;;;17.22;69.80
71573;BME280;59408;51.032;9.410;2023-08-08T09:06:04;98763.53;;;16.93;69.06
71573;BME280;59408;51.032;9.410;2023-08-08T09:08:32;98752.28;;;16.47;70.74
71573;BME280;59408;51.032;9.410;2023-08-08T09:10:59;98756.97;;;16.43;72.84
71573;BME280;59408;51.032;9.410;2023-08-08T09:13:26;98752.03;;;16.08;73.00
71573;BME280;59408;51.032;9.410;2023-08-08T09:15:52;98745.88;;;16.29;72.17
71573;BME280;59408;51.032;9.410;2023-08-08T09:18:23;98739.16;;;17.06;72.17
71573;BME280;59408;51.032;9.410;2023-08-08T09:20:49;98741.16;;;17.12;68.09
71573;BME280;59408;51.032;9.410;2023-08-08T09:23:16;98734.56;;;17.56;68.67
71573;BME280;59408;51.032;9.410;2023-08-08T09:25:44;98729.47;;;17.86;67.93
71573;BME280;59408;51.032;9.410;2023-08-08T09:28:11;98745.22;;;18.00;65.52
71573;BME280;59408;51.032;9.410;2023-08-08T09:30:37;98746.78;;;18.26;64.61
71573;BME280;59408;51.032;9.410;2023-08-08T09:33:04;98745.59;;;18.27;64.18
71573;BME280;59408;51.032;9.410;2023-08-08T09:35:32;98746.72;;;17.26;65.55
71573;BME280;59408;51.032;9.410;2023-08-08T09:37:59;98742.66;;;16.88;66.70
71573;BME280;59408;51.032;9.410;2023-08-08T09:40:25;98744.94;;;16.76;68.59
71573;BME280;59408;51.032;9.410;2023-08-08T09:42:53;98750.47;;;16.76;67.88
71573;BME280;59408;51.032;9.410;2023-08-08T09:45:20;98736.53;;;16.44;69.39
71573;BME280;59408;51.032;9.410;2023-08-08T09:47:49;98737.56;;;16.21;70.41
71573;BME280;59408;51.032;9.410;2023-08-08T09:50:15;98741.91;;;16.26;70.80
71573;BME280;59408;51.032;9.410;2023-08-08T09:52:43;98744.06;;;16.54;69.69
71573;BME280;59408;51.032;9.410;2023-08-08T09:55:10;98752.13;;;16.94;68.19
71573;BME280;59408;51.032;9.410;2023-08-08T09:57:38;98745.41;;;16.88;66.92
71573;BME280;59408;51.032;9.410;2023-08-08T10:00:08;98738.28;;;16.73;68.34
71573;BME280;59408;51.032;9.410;2023-08-08T10:02:35;98738.91;;;16.52;69.11
71573;BME280;59408;51.032;9.410;2023-08-08T10:05:04;98755.03;;;16.50;69.60
71573;BME280;59408;51.032;9.410;2023-08-08T10:07:30;98759.56;;;16.21;69.67
71573;BME280;59408;51.032;9.410;2023-08-08T10:09:57;98748.66;;;16.36;70.15
71573;BME280;59408;51.032;9.410;2023-08-08T10:12:25;98750.25;;;16.40;69.44
71573;BME280;59408;51.032;9.410;2023-08-08T10:14:53;98744.38;;;16.42;69.18
71573;BME280;59408;51.032;9.410;2023-08-08T10:17:21;98757.00;;;16.50;68.62
71573;BME280;59408;51.032;9.410;2023-08-08T10:19:51;98751.22;;;16.66;67.98
71573;BME280;59408;51.032;9.410;2023-08-08T10:22:21;98753.44;;;16.49;67.77
71573;BME280;59408;51.032;9.410;2023-08-08T10:24:51;98741.69;;;16.52;67.97
71573;BME280;59408;51.032;9.410;2023-08-08T10:27:27;98744.94;;;16.65;66.00
71573;BME280;59408;51.032;9.410;2023-08-08T10:30:01;98752.66;;;16.45;65.77
71573;BME280;59408;51.032;9.410;2023-08-08T10:32:38;98744.06;;;16.57;65.24
71573;BME280;59408;51.032;9.410;2023-08-08T10:35:06;98730.00;;;16.73;64.87
71573;BME280;59408;51.032;9.410;2023-08-08T10:37:33;98735.88;;;16.68;64.47
71573;BME280;59408;51.032;9.410;2023-08-08T10:40:02;98739.41;;;16.69;64.13
71573;BME280;59408;51.032;9.410;2023-08-08T10:42:29;98737.97;;;16.92;66.33
71573;BME280;59408;51.032;9.410;2023-08-08T10:44:57;98731.44;;;17.68;65.45
71573;BME280;59408;51.032;9.410;2023-08-08T10:47:24;98740.50;;;17.79;63.10
71573;BME280;59408;51.032;9.410;2023-08-08T10:50:03;98743.66;;;17.81;64.08
71573;BME280;59408;51.032;9.410;2023-08-08T10:52:30;98738.13;;;17.63;64.02
71573;BME280;59408;51.032;9.410;2023-08-08T10:54:57;98738.81;;;17.11;64.26
71573;BME280;59408;51.032;9.410;2023-08-08T10:57:25;98735.59;;;16.94;64.70
71573;BME280;59408;51.032;9.410;2023-08-08T10:59:53;98737.03;;;16.67;65.07
71573;BME280;59408;51.032;9.410;2023-08-08T11:02:20;98745.19;;;16.49;66.82
71573;BME280;59408;51.032;9.410;2023-08-08T11:04:48;98744.25;;;16.24;66.46
71573;BME280;59408;51.032;9.410;2023-08-08T11:07:16;98744.56;;;16.08;66.20
71573;BME280;59408;51.032;9.410;2023-08-08T11:09:43;98743.63;;;15.90;64.92
71573;BME280;59408;51.032;9.410;2023-08-08T11:12:13;98753.41;;;15.84;64.87
71573;BME280;59408;51.032;9.410;2023-08-08T11:14:41;98750.72;;;15.91;65.28
71573;BME280;59408;51.032;9.410;2023-08-08T11:17:08;98735.25;;;16.27;65.69
71573;BME280;59408;51.032;9.410;2023-08-08T11:19:39;98734.63;;;16.55;63.53
71573;BME280;59408;51.032;9.410;2023-08-08T11:22:09;98739.31;;;16.51;63.92
71573;BME280;59408;51.032;9.410;2023-08-08T11:24:37;98736.88;;;16.35;65.46
71573;BME280;59408;51.032;9.410;2023-08-08T11:27:04;98736.38;;;16.19;65.91
71573;BME280;59408;51.032;9.410;2023-08-08T11:29:31;98747.31;;;16.08;66.95
71573;BME280;59408;51.032;9.410;2023-08-08T11:32:00;98737.38;;;15.93;67.16
71573;BME280;59408;51.032;9.410;2023-08-08T11:34:30;98742.00;;;15.86;67.32
71573;BME280;59408;51.032;9.410;2023-08-08T11:36:57;98743.59;;;15.83;67.79
71573;BME280;59408;51.032;9.410;2023-08-08T11:39:24;98759.16;;;15.65;67.06
71573;BME280;59408;51.032;9.410;2023-08-08T11:41:52;98766.09;;;15.55;68.36
71573;BME280;59408;51.032;9.410;2023-08-08T11:44:19;98766.31;;;15.39;71.65
71573;BME280;59408;51.032;9.410;2023-08-08T11:46:46;98773.25;;;15.26;74.52
71573;BME280;59408;51.032;9.410;2023-08-08T11:49:14;98771.78;;;15.02;77.51
71573;BME280;59408;51.032;9.410;2023-08-08T11:51:42;98792.06;;;14.61;82.76
71573;BME280;59408;51.032;9.410;2023-08-08T11:54:09;98799.94;;;14.40;85.00
71573;BME280;59408;51.032;9.410;2023-08-08T11:56:36;98804.00;;;13.96;87.17
71573;BME280;59408;51.032;9.410;2023-08-08T11:59:05;98788.47;;;13.81;90.18
71573;BME280;59408;51.032;9.410;2023-08-08T12:01:32;98786.78;;;13.73;91.63
71573;BME280;59408;51.032;9.410;2023-08-08T12:04:04;98795.59;;;13.63;92.05
71573;BME280;59408;51.032;9.410;2023-08-08T12:06:31;98786.06;;;13.57;92.02
71573;BME280;59408;51.032;9.410;2023-08-08T12:08:58;98787.50;;;13.47;92.76
71573;BME280;59408;51.032;9.410;2023-08-08T12:11:27;98788.34;;;13.51;96.55
71573;BME280;59408;51.032;9.410;2023-08-08T12:13:59;98789.84;;;13.49;95.53
71573;BME280;59408;51.032;9.410;2023-08-08T12:16:29;98790.34;;;13.54;95.04
71573;BME280;59408;51.032;9.410;2023-08-08T12:19:01;98788.16;;;13.64;92.18
71573;BME280;59408;51.032;9.410;2023-08-08T12:21:27;98786.94;;;13.61;92.51
71573;BME280;59408;51.032;9.410;2023-08-08T12:23:54;98780.06;;;13.71;94.84
71573;BME280;59408;51.032;9.410;2023-08-08T12:26:21;98782.44;;;13.72;90.00
71573;BME280;59408;51.032;9.410;2023-08-08T12:28:47;98787.50;;;13.70;87.92
71573;BME280;59408;51.032;9.410;2023-08-08T12:31:14;98820.28;;;13.63;88.93
71573;BME280;59408;51.032;9.410;2023-08-08T12:33:42;98798.16;;;13.52;89.05
71573;BME280;59408;51.032;9.410;2023-08-08T12:36:08;98795.72;;;13.28;89.36
71573;BME280;59408;51.032;9.410;2023-08-08T12:38:35;98789.38;;;13.43;91.71
71573;BME280;59408;51.032;9.410;2023-08-08T12:41:02;98784.75;;;13.47;90.24
71573;BME280;59408;51.032;9.410;2023-08-08T12:43:28;98785.16;;;13.49;87.57
71573;BME280;59408;51.032;9.410;2023-08-08T12:45:55;98778.09;;;13.48;87.28
71573;BME280;59408;51.032;9.410;2023-08-08T12:48:21;98761.38;;;13.53;88.89
71573;BME280;59408;51.032;9.410;2023-08-08T12:50:49;98767.22;;;13.52;88.18
71573;BME280;59408;51.032;9.410;2023-08-08T12:53:16;98761.38;;;13.53;88.04
71573;BME280;59408;51.032;9.410;2023-08-08T12:55:43;98753.81;;;13.70;87.73
71573;BME280;59408;51.032;9.410;2023-08-08T12:58:09;98753.00;;;13.92;86.90